Boeing Field King County International Airport
KBFI : now visible

Airfield :











YOU CAN JOIN US ON...

 
LOGIN :

Register | Disclaimer

   EN    FR    IT 

 









Legend :    VFR   Marginal VFR   IFR   Intensive IFR   Very Intensive IFR
Visi :
Ceiling :
>= 8 km
>= 3000ft
5 to 8 km
1000 to 3000 ft
1500m to 5 km
500 to 1000 ft
800 to 1500m
200 to 500 ft
< 800m
< 200 ft
Symbols :   Thunderstorms  Fog  Heavy snow  Heavy precipitations  Wind > 20 kt






- Airport Elevation : 21 ft
- IATA code : BFI


KBFI - Boeing Field King County International

CURRENT METAR :
  • 170253Z 00000KT 10SM SCT026 BKN055 BKN070 07/03 A3022 RMK AO2 RAB27E42 SLP232 P0000 60000 T00720028 53006

EXPIRED METARs :
  • 170153Z 24006KT 10SM FEW025 BKN036 BKN080 07/02 A3020 RMK AO2 SLP227 T00720022
  • 170053Z 23006KT 10SM SCT026 BKN030 BKN035 08/03 A3020 RMK AO2 SLP225 T00830028

TAF KBFI
Valid from the 17 at 00:00 until the 18 at 00:00 UTC


162320Z 1700/1724 20012KT P6SM VCSH OVC030
TEMPO 1700/1704 -SHRA OVC025
FM170500 17007KT P6SM VCSH OVC040
FM171600 15005KT P6SM OVC035
FM171900 25005KT P6SM OVC040



MET'MAP, your aeronautical weather chart ! - Copyright ORBIFLY December 2007 - Disclaimer

ORBIFLY MET'MAP TEAM :

Programming & Development : Alexandra Zaïnal
Concept & original design : Baudouin d'Aumeries
Assistance for programming : Marc-Olivier Méhu
Technical & hardware support : Manuel Goepfert

Contact : metmap@orbifly.com




SOURCES & CREDITS :

   NOAA       Earth
Advisory